Time;durP1;ratioP1;P1;durP2;ratioP2;P2;SDS_P1;SDS_P2;PMS_P1;PMS_P2;Temp;Humidity;BMP_temperature;BMP_pressure;BME280_temperature;BME280_humidity;BME280_pressure;Samples;Min_cycle;Max_cycle;Signal;HPM_P1;HPM_P2
2023/04/26 00:02:11;;;;;;;3.42;1.00;;;;;;;7.04;100.00;100340.13;5066674;28;20037;-68
2023/04/26 00:04:37;;;;;;;4.55;0.90;;;;;;;7.12;100.00;100332.50;5062860;28;20031;-67
2023/04/26 00:07:03;;;;;;;3.28;0.90;;;;;;;7.15;100.00;100332.25;5062541;28;20382;-68
2023/04/26 00:09:29;;;;;;;2.85;0.80;;;;;;;7.16;100.00;100320.13;5063370;28;20051;-68
2023/04/26 00:11:54;;;;;;;4.35;0.90;;;;;;;7.21;100.00;100321.41;5077736;28;20123;-68
2023/04/26 00:14:20;;;;;;;4.18;0.98;;;;;;;7.24;100.00;100322.91;5072746;28;20028;-67
2023/04/26 00:16:46;;;;;;;3.08;1.10;;;;;;;7.24;100.00;100325.50;5071227;28;20036;-68
2023/04/26 00:19:12;;;;;;;5.18;0.95;;;;;;;7.19;100.00;100327.66;5070705;28;20048;-68
2023/04/26 00:21:38;;;;;;;2.28;0.90;;;;;;;7.11;100.00;100325.69;5078096;28;20098;-68
2023/04/26 00:24:07;;;;;;;4.20;0.60;;;;;;;7.15;100.00;100327.09;5075199;28;20483;-67
2023/04/26 00:26:33;;;;;;;3.92;0.60;;;;;;;7.34;100.00;100321.22;5070663;28;20051;-68
2023/04/26 00:28:58;;;;;;;2.45;0.90;;;;;;;7.45;100.00;100328.94;5071997;28;20067;-68
2023/04/26 00:31:24;;;;;;;2.35;0.90;;;;;;;7.44;100.00;100326.47;5073702;28;21027;-68
2023/04/26 00:33:50;;;;;;;2.15;0.40;;;;;;;7.32;100.00;100329.13;5073517;28;20036;-67
2023/04/26 00:36:18;;;;;;;5.50;0.82;;;;;;;7.25;100.00;100334.94;5071175;28;20040;-68
2023/04/26 00:38:46;;;;;;;1.35;0.60;;;;;;;7.13;100.00;100343.69;5068011;28;20028;-68
2023/04/26 00:41:12;;;;;;;1.65;0.52;;;;;;;7.05;100.00;100341.75;5069582;28;20479;-68
2023/04/26 00:43:39;;;;;;;4.20;1.23;;;;;;;6.97;100.00;100344.97;5071561;28;20036;-68
2023/04/26 00:46:06;;;;;;;2.85;0.45;;;;;;;6.92;100.00;100348.88;5078915;28;20379;-68
2023/04/26 00:48:32;;;;;;;1.67;0.70;;;;;;;6.89;100.00;100349.13;5077190;28;20028;-68
2023/04/26 00:50:58;;;;;;;2.38;0.60;;;;;;;6.83;100.00;100358.19;5071068;28;20437;-68
2023/04/26 00:53:24;;;;;;;4.60;0.50;;;;;;;6.78;100.00;100351.75;5074403;28;20064;-68
2023/04/26 00:55:50;;;;;;;4.32;0.63;;;;;;;6.74;100.00;100358.94;5072049;28;20035;-68
2023/04/26 00:58:17;;;;;;;4.30;0.90;;;;;;;6.72;100.00;100355.66;5068974;28;20136;-68
2023/04/26 01:00:43;;;;;;;2.30;1.17;;;;;;;6.70;100.00;100351.53;5071016;28;20029;-68
2023/04/26 01:03:08;;;;;;;5.47;0.85;;;;;;;6.81;100.00;100360.09;5067839;28;20035;-68
2023/04/26 01:05:35;;;;;;;2.85;0.90;;;;;;;6.78;100.00;100360.34;5062143;28;20122;-68
2023/04/26 01:08:03;;;;;;;1.70;0.95;;;;;;;6.91;100.00;100355.00;5064695;28;20054;-68
2023/04/26 01:10:30;;;;;;;2.97;0.82;;;;;;;7.04;100.00;100355.66;5070667;28;21467;-68
2023/04/26 01:12:56;;;;;;;3.28;0.75;;;;;;;6.99;100.00;100363.81;5074926;28;20586;-68
2023/04/26 01:15:22;;;;;;;1.60;0.75;;;;;;;7.01;100.00;100371.44;5070141;28;20118;-68
2023/04/26 01:17:48;;;;;;;2.15;0.68;;;;;;;7.07;100.00;100368.38;5072712;28;20112;-68
2023/04/26 01:20:13;;;;;;;1.83;0.90;;;;;;;7.05;100.00;100367.66;5060021;28;20570;-67
2023/04/26 01:22:40;;;;;;;2.97;1.13;;;;;;;7.10;100.00;100364.69;5073154;28;20024;-68
2023/04/26 01:25:08;;;;;;;2.30;0.75;;;;;;;7.10;100.00;100364.69;5079503;28;20032;-68
2023/04/26 01:27:34;;;;;;;8.07;0.70;;;;;;;7.04;100.00;100365.19;5075422;28;20043;-68
2023/04/26 01:30:00;;;;;;;3.08;0.60;;;;;;;6.95;100.00;100366.75;5073334;28;20047;-68
2023/04/26 01:32:25;;;;;;;1.58;0.40;;;;;;;6.90;100.00;100364.53;5066766;28;20036;-68
2023/04/26 01:34:51;;;;;;;1.33;0.50;;;;;;;6.80;100.00;100355.84;5073768;28;20131;-68
2023/04/26 01:37:16;;;;;;;2.10;0.70;;;;;;;6.69;100.00;100355.06;5061252;28;20039;-68
2023/04/26 01:39:42;;;;;;;2.40;0.70;;;;;;;6.59;100.00;100360.19;5065998;28;20108;-68
2023/04/26 01:42:07;;;;;;;3.63;0.68;;;;;;;6.54;100.00;100363.13;5071494;28;20464;-68
2023/04/26 01:44:32;;;;;;;2.28;1.25;;;;;;;6.58;100.00;100363.72;5064615;28;20116;-68
2023/04/26 01:46:58;;;;;;;4.57;1.63;;;;;;;6.56;100.00;100360.41;5068610;28;20037;-68
2023/04/26 01:49:23;;;;;;;3.47;1.67;;;;;;;6.51;100.00;100354.78;5067164;28;20496;-68
2023/04/26 01:51:49;;;;;;;2.58;1.40;;;;;;;6.44;100.00;100363.97;5068464;28;20028;-68
2023/04/26 01:54:15;;;;;;;4.95;1.52;;;;;;;6.39;100.00;100358.31;5071226;28;20081;-68
2023/04/26 01:56:41;;;;;;;2.20;1.45;;;;;;;6.38;100.00;100361.84;5071891;28;20040;-67
2023/04/26 01:59:06;;;;;;;6.53;1.67;;;;;;;6.32;100.00;100363.97;5073685;28;20480;-68
2023/04/26 02:01:31;;;;;;;3.13;1.30;;;;;;;6.30;100.00;100380.56;5060619;28;20081;-68
2023/04/26 02:03:57;;;;;;;2.60;1.40;;;;;;;6.29;100.00;100379.75;5069780;28;20056;-68
2023/04/26 02:06:22;;;;;;;5.22;1.38;;;;;;;6.24;100.00;100384.44;5068540;28;20068;-68
2023/04/26 02:08:48;;;;;;;3.92;1.73;;;;;;;6.17;100.00;100380.69;5065435;28;20056;-68
2023/04/26 02:11:13;;;;;;;2.75;1.20;;;;;;;6.16;100.00;100384.22;5062572;28;20032;-68
2023/04/26 02:13:39;;;;;;;2.80;1.40;;;;;;;6.12;100.00;100380.25;5063152;28;20040;-68
2023/04/26 02:16:05;;;;;;;3.85;1.77;;;;;;;6.11;100.00;100386.34;5064461;28;20193;-68
2023/04/26 02:18:30;;;;;;;3.97;1.75;;;;;;;6.00;100.00;100388.94;5067767;28;20024;-68
2023/04/26 02:20:58;;;;;;;2.88;1.73;;;;;;;6.03;100.00;100398.22;5073026;28;20484;-68
2023/04/26 02:23:23;;;;;;;3.55;1.50;;;;;;;5.99;100.00;100393.28;5068781;28;20036;-68
2023/04/26 02:25:49;;;;;;;4.97;2.03;;;;;;;5.92;100.00;100389.50;5068785;28;20047;-68
2023/04/26 02:28:15;;;;;;;5.70;2.67;;;;;;;5.93;100.00;100392.91;5069467;28;20353;-68
2023/04/26 02:30:41;;;;;;;5.20;2.72;;;;;;;5.85;100.00;100387.47;5067748;28;20029;-68
2023/04/26 02:33:07;;;;;;;5.47;2.47;;;;;;;5.85;100.00;100397.81;5068026;28;20056;-68
2023/04/26 02:35:33;;;;;;;4.43;3.58;;;;;;;5.89;100.00;100394.09;5068196;28;20155;-68
2023/04/26 02:37:58;;;;;;;6.50;2.80;;;;;;;5.89;100.00;100400.09;5062051;28;20037;-68
2023/04/26 02:40:24;;;;;;;5.85;1.95;;;;;;;5.87;100.00;100403.69;5062445;28;20020;-68
2023/04/26 02:42:49;;;;;;;2.58;2.13;;;;;;;5.83;100.00;100397.94;5064608;28;20039;-67
2023/04/26 02:45:15;;;;;;;4.95;2.38;;;;;;;5.76;100.00;100407.09;5065107;28;20033;-68
2023/04/26 02:47:40;;;;;;;3.17;2.42;;;;;;;5.73;100.00;100402.13;5063129;28;20468;-67
2023/04/26 02:50:07;;;;;;;6.68;3.30;;;;;;;5.79;100.00;100406.03;5064606;28;20041;-68
2023/04/26 02:52:34;;;;;;;3.00;2.30;;;;;;;5.74;100.00;100400.38;5046586;28;20089;-68
2023/04/26 02:55:01;;;;;;;4.90;3.03;;;;;;;5.72;100.00;100399.66;5064738;28;20121;-67
2023/04/26 02:57:26;;;;;;;3.17;2.28;;;;;;;5.72;100.00;100404.84;5064816;28;20138;-68
2023/04/26 02:59:52;;;;;;;3.72;2.28;;;;;;;5.70;100.00;100411.88;5064566;28;20037;-67
2023/04/26 03:02:17;;;;;;;4.00;2.63;;;;;;;5.67;100.00;100408.59;5064210;28;20024;-67
2023/04/26 03:04:43;;;;;;;4.15;2.47;;;;;;;5.61;100.00;100413.41;5067546;28;20102;-68
2023/04/26 03:07:08;;;;;;;4.22;2.42;;;;;;;5.62;100.00;100415.88;5048795;28;20032;-68
2023/04/26 03:09:36;;;;;;;3.97;2.67;;;;;;;5.60;100.00;100411.78;5068632;28;20056;-68
2023/04/26 03:12:02;;;;;;;4.22;2.20;;;;;;;5.63;100.00;100414.94;5066957;28;20519;-68
2023/04/26 03:14:28;;;;;;;1.90;1.25;;;;;;;5.67;100.00;100412.97;5070664;28;20032;-68
2023/04/26 03:16:53;;;;;;;3.10;0.85;;;;;;;5.84;100.00;100419.44;5072144;28;20028;-67
2023/04/26 03:19:19;;;;;;;2.75;0.60;;;;;;;6.00;100.00;100422.56;5067403;28;20036;-68
2023/04/26 03:21:44;;;;;;;2.72;0.45;;;;;;;6.11;100.00;100425.16;5068948;28;20035;-68
2023/04/26 03:24:10;;;;;;;3.92;0.50;;;;;;;6.18;100.00;100421.13;5069049;28;21149;-68
2023/04/26 03:26:36;;;;;;;1.35;0.43;;;;;;;6.25;100.00;100419.72;5077534;28;20035;-68
2023/04/26 03:29:02;;;;;;;1.88;0.38;;;;;;;6.22;100.00;100419.97;5073867;28;20111;-68
2023/04/26 03:31:27;;;;;;;3.15;0.65;;;;;;;6.18;100.00;100417.72;5071660;28;20063;-68
2023/04/26 03:33:53;;;;;;;4.28;0.40;;;;;;;6.15;100.00;100426.53;5072463;28;20502;-68
2023/04/26 03:36:18;;;;;;;4.13;0.50;;;;;;;6.13;100.00;100422.44;5071659;28;20052;-68
2023/04/26 03:38:44;;;;;;;2.45;0.70;;;;;;;6.07;100.00;100430.66;5068061;28;20033;-68
2023/04/26 03:41:09;;;;;;;3.58;2.00;;;;;;;6.03;100.00;100424.91;5073399;28;20033;-67
2023/04/26 03:43:35;;;;;;;5.38;2.65;;;;;;;6.01;100.00;100431.97;5068511;28;20027;-68
2023/04/26 03:46:00;;;;;;;4.68;0.60;;;;;;;5.87;100.00;100429.56;5070892;28;20036;-67
2023/04/26 03:48:26;;;;;;;0.75;0.30;;;;;;;6.10;100.00;100431.25;5070606;28;20384;-67
2023/04/26 03:50:52;;;;;;;2.65;0.40;;;;;;;6.19;100.00;100445.25;5077045;28;20416;-67
2023/04/26 03:53:18;;;;;;;0.90;0.40;;;;;;;6.30;100.00;100437.50;5075977;28;20503;-68
2023/04/26 03:55:43;;;;;;;1.70;0.28;;;;;;;6.45;100.00;100427.72;5074139;28;20067;-67
2023/04/26 03:58:09;;;;;;;0.50;0.20;;;;;;;6.60;100.00;100435.13;5070286;28;20036;-68
2023/04/26 04:00:38;;;;;;;1.25;0.30;;;;;;;6.71;100.00;100442.03;5076537;28;20020;-68
2023/04/26 04:03:04;;;;;;;0.60;0.30;;;;;;;6.75;100.00;100435.66;5083351;28;20102;-67
2023/04/26 04:05:30;;;;;;;1.13;0.30;;;;;;;6.80;100.00;100435.31;5069712;28;20037;-67
2023/04/26 04:07:55;;;;;;;0.40;0.20;;;;;;;6.86;100.00;100442.59;5071545;28;20193;-67
2023/04/26 04:10:24;;;;;;;1.48;0.10;;;;;;;6.87;100.00;100439.06;5068853;28;20037;-68
2023/04/26 04:12:51;;;;;;;2.85;0.38;;;;;;;6.77;100.00;100435.56;5079952;28;20036;-67
2023/04/26 04:15:17;;;;;;;1.30;0.30;;;;;;;6.52;100.00;100431.50;5066019;28;20039;-68
2023/04/26 04:17:43;;;;;;;1.77;0.75;;;;;;;6.23;100.00;100424.19;5067648;28;20107;-68
2023/04/26 04:20:09;;;;;;;1.77;0.55;;;;;;;6.09;100.00;100429.63;5069193;28;20464;-67
2023/04/26 04:22:35;;;;;;;2.13;0.68;;;;;;;6.13;100.00;100435.38;5076877;28;20037;-68
2023/04/26 04:25:00;;;;;;;6.45;1.17;;;;;;;6.02;100.00;100433.59;5070253;28;20078;-67
2023/04/26 04:27:26;;;;;;;4.57;1.17;;;;;;;5.89;100.00;100432.88;5070429;28;20103;-68
2023/04/26 04:29:52;;;;;;;5.05;1.88;;;;;;;5.89;100.00;100436.28;5071874;28;20029;-68
2023/04/26 04:32:18;;;;;;;4.20;1.73;;;;;;;5.88;100.00;100432.03;5070915;28;20064;-67
2023/04/26 04:34:44;;;;;;;3.50;0.70;;;;;;;5.93;100.00;100432.53;5065485;28;20074;-68
2023/04/26 04:37:10;;;;;;;4.43;0.40;;;;;;;6.25;100.00;100437.00;5074043;28;20043;-68
2023/04/26 04:39:36;;;;;;;3.35;0.60;;;;;;;6.52;100.00;100434.91;5072718;28;20112;-68
2023/04/26 04:42:01;;;;;;;1.80;0.80;;;;;;;6.66;100.00;100442.38;5071621;28;20042;-68
2023/04/26 04:44:27;;;;;;;3.20;1.25;;;;;;;6.61;100.00;100436.78;5062982;28;20123;-68
2023/04/26 04:46:52;;;;;;;4.32;2.65;;;;;;;6.58;100.00;100449.97;5068230;28;20021;-68
2023/04/26 04:49:17;;;;;;;5.18;2.22;;;;;;;6.57;100.00;100450.91;5070870;28;20067;-68
2023/04/26 04:51:43;;;;;;;7.53;3.03;;;;;;;6.68;100.00;100444.84;5069203;28;20046;-68
2023/04/26 04:54:16;;;;;;;6.45;2.30;;;;;;;6.72;100.00;100454.03;5068369;28;20033;-68
2023/04/26 04:56:42;;;;;;;2.42;0.93;;;;;;;6.74;100.00;100461.69;5070806;28;20103;-68
2023/04/26 04:59:07;;;;;;;1.65;0.60;;;;;;;6.78;100.00;100461.31;5070190;28;20130;-67
2023/04/26 05:01:33;;;;;;;8.82;0.40;;;;;;;6.78;100.00;100469.09;5073417;28;20028;-67
2023/04/26 05:03:59;;;;;;;1.83;0.65;;;;;;;6.88;100.00;100480.38;5069515;28;20113;-68
2023/04/26 05:06:26;;;;;;;2.47;0.30;;;;;;;6.92;100.00;100481.78;5073224;28;20040;-67
2023/04/26 05:08:52;;;;;;;0.77;0.40;;;;;;;6.95;100.00;100484.16;5069036;28;20082;-69
2023/04/26 05:11:18;;;;;;;3.60;0.30;;;;;;;7.04;100.00;100477.41;5068818;28;20024;-67
2023/04/26 05:13:43;;;;;;;1.42;0.30;;;;;;;7.15;100.00;100492.09;5070234;28;20033;-68
2023/04/26 05:16:08;;;;;;;1.40;0.40;;;;;;;7.26;100.00;100499.84;5070433;28;20067;-68
2023/04/26 05:18:34;;;;;;;2.95;0.50;;;;;;;7.34;100.00;100494.88;5071057;28;20060;-68
2023/04/26 05:20:59;;;;;;;2.58;0.20;;;;;;;7.42;100.00;100502.84;5071029;28;20434;-68
2023/04/26 05:23:25;;;;;;;2.72;0.20;;;;;;;7.46;100.00;100514.63;5075170;28;20166;-68
2023/04/26 05:25:50;;;;;;;3.22;0.28;;;;;;;7.48;100.00;100512.75;5065404;28;20039;-68
2023/04/26 05:28:16;;;;;;;0.70;0.25;;;;;;;7.53;100.00;100502.81;5069758;28;20025;-68
2023/04/26 05:30:42;;;;;;;1.45;0.40;;;;;;;7.61;100.00;100505.59;5052153;28;20033;-68
2023/04/26 05:33:07;;;;;;;1.20;0.20;;;;;;;7.75;100.00;100520.03;5069969;28;20128;-67
2023/04/26 05:35:33;;;;;;;2.22;0.30;;;;;;;7.95;100.00;100511.47;5074342;28;20024;-67
2023/04/26 05:37:58;;;;;;;1.75;0.30;;;;;;;8.07;100.00;100517.38;5071539;28;20043;-68
2023/04/26 05:40:25;;;;;;;2.50;0.45;;;;;;;8.13;100.00;100521.25;5070470;28;20115;-68
2023/04/26 05:42:50;;;;;;;1.45;0.40;;;;;;;8.15;100.00;100525.34;5070202;28;20028;-68
2023/04/26 05:45:16;;;;;;;1.92;0.50;;;;;;;8.22;100.00;100530.84;5067688;28;20055;-68
2023/04/26 05:47:41;;;;;;;2.80;0.30;;;;;;;8.27;100.00;100519.16;5064886;28;20511;-68
2023/04/26 05:50:07;;;;;;;0.80;0.30;;;;;;;8.39;100.00;100525.13;5066841;28;20487;-68
2023/04/26 05:52:33;;;;;;;1.67;0.25;;;;;;;8.52;100.00;100520.50;5065232;28;20023;-68
2023/04/26 05:55:01;;;;;;;3.15;0.30;;;;;;;8.60;100.00;100519.88;5062624;28;20116;-68
2023/04/26 05:57:26;;;;;;;1.98;0.25;;;;;;;8.85;100.00;100519.44;5068223;28;20107;-68
2023/04/26 05:59:51;;;;;;;1.13;0.20;;;;;;;9.11;98.31;100524.13;5068979;28;20115;-69
2023/04/26 06:02:17;;;;;;;0.68;0.30;;;;;;;9.19;96.62;100526.88;5067988;28;20052;-69
2023/04/26 06:04:42;;;;;;;0.45;0.20;;;;;;;9.25;95.57;100531.56;5067424;28;20053;-68
2023/04/26 06:07:08;;;;;;;2.50;0.20;;;;;;;9.34;94.90;100528.16;5067394;28;20044;-68
2023/04/26 06:09:34;;;;;;;0.77;0.10;;;;;;;9.46;95.08;100532.25;5069648;28;20036;-68
2023/04/26 06:11:59;;;;;;;1.25;0.20;;;;;;;9.60;93.98;100534.47;5069208;28;20043;-68
2023/04/26 06:14:25;;;;;;;2.80;0.30;;;;;;;9.80;95.32;100527.47;5062403;28;20025;-68
2023/04/26 06:16:51;;;;;;;1.75;0.30;;;;;;;9.79;90.73;100543.22;5068742;28;20032;-69
2023/04/26 06:19:16;;;;;;;4.95;0.52;;;;;;;9.81;94.60;100530.91;5063904;28;20163;-68
2023/04/26 06:21:42;;;;;;;3.38;0.28;;;;;;;9.88;93.67;100534.59;5075224;28;20052;-68
2023/04/26 06:24:07;;;;;;;4.28;0.28;;;;;;;9.94;93.16;100532.25;5072175;28;20052;-68
2023/04/26 06:26:32;;;;;;;5.43;0.60;;;;;;;10.01;89.73;100540.31;5070586;28;20028;-68
2023/04/26 06:28:58;;;;;;;1.85;0.47;;;;;;;10.10;90.53;100536.88;5065342;28;20036;-68
2023/04/26 06:31:23;;;;;;;3.13;0.80;;;;;;;10.32;89.59;100537.56;5059185;28;20358;-68
2023/04/26 06:33:49;;;;;;;2.60;0.30;;;;;;;10.48;88.09;100535.16;5066740;28;20044;-70
2023/04/26 06:36:14;;;;;;;1.88;0.30;;;;;;;10.63;88.17;100542.41;5058731;28;20040;-70
2023/04/26 06:38:40;;;;;;;2.17;0.30;;;;;;;10.70;86.39;100532.22;5054550;28;20410;-69
2023/04/26 06:41:05;;;;;;;1.70;0.20;;;;;;;10.81;86.36;100542.47;5060935;28;20916;-69
2023/04/26 06:43:31;;;;;;;2.85;0.20;;;;;;;10.87;86.06;100541.88;5058778;28;20035;-69
2023/04/26 06:45:56;;;;;;;5.43;0.43;;;;;;;11.11;85.41;100545.75;5063648;28;20041;-71
2023/04/26 06:48:22;;;;;;;3.92;0.20;;;;;;;11.25;83.78;100553.06;5064257;28;20024;-68
2023/04/26 06:50:47;;;;;;;3.53;0.30;;;;;;;11.36;82.96;100554.63;5062989;28;20342;-70
2023/04/26 06:53:13;;;;;;;2.30;0.20;;;;;;;11.46;81.54;100552.78;5056717;28;20074;-69
2023/04/26 06:55:38;;;;;;;3.03;0.28;;;;;;;11.54;81.25;100547.66;5059490;28;20036;-70
2023/04/26 06:58:04;;;;;;;2.42;0.20;;;;;;;11.59;79.72;100545.41;5058150;28;20445;-70
2023/04/26 07:00:29;;;;;;;0.55;0.17;;;;;;;11.69;78.60;100545.34;5061711;28;20464;-67
2023/04/26 07:02:55;;;;;;;0.40;0.20;;;;;;;11.77;77.87;100548.88;5063778;28;20143;-66
2023/04/26 07:05:20;;;;;;;2.80;0.40;;;;;;;11.93;77.53;100542.94;5066392;28;20499;-65
2023/04/26 07:07:45;;;;;;;3.55;0.30;;;;;;;12.11;77.87;100540.31;5062624;28;20060;-72
2023/04/26 07:10:12;;;;;;;1.80;0.38;;;;;;;12.19;76.05;100543.81;5068346;28;20032;-68
2023/04/26 07:12:38;;;;;;;0.93;0.30;;;;;;;12.26;76.03;100539.63;5064742;28;20079;-67
2023/04/26 07:15:05;;;;;;;1.17;0.20;;;;;;;12.47;75.44;100530.56;5066622;28;20503;-67
2023/04/26 07:17:31;;;;;;;6.07;0.22;;;;;;;12.65;74.64;100543.59;5065640;28;20037;-67
2023/04/26 07:19:57;;;;;;;2.80;0.20;;;;;;;12.67;74.62;100541.63;5063630;28;20441;-67
2023/04/26 07:22:23;;;;;;;1.02;0.35;;;;;;;12.80;75.15;100532.38;5066437;28;20033;-67
2023/04/26 07:24:48;;;;;;;1.55;0.20;;;;;;;12.88;74.54;100534.19;5064709;28;20052;-67
2023/04/26 07:27:14;;;;;;;0.50;0.20;;;;;;;12.91;75.29;100536.50;5065081;28;20086;-70
2023/04/26 07:29:39;;;;;;;1.27;0.20;;;;;;;13.01;74.06;100531.16;5065464;28;20028;-69
2023/04/26 07:32:05;;;;;;;0.52;0.10;;;;;;;13.35;72.42;100536.31;5066907;28;20056;-68
2023/04/26 07:34:31;;;;;;;0.70;0.32;;;;;;;13.44;73.27;100536.19;5057629;28;20064;-68
2023/04/26 07:36:56;;;;;;;3.20;0.10;;;;;;;13.75;73.89;100543.41;5066686;28;20485;-67
2023/04/26 07:39:22;;;;;;;0.50;0.10;;;;;;;14.19;73.53;100538.63;5048581;28;20040;-68
2023/04/26 07:41:47;;;;;;;0.40;0.10;;;;;;;14.34;73.48;100534.34;5065433;28;20056;-68
2023/04/26 07:44:13;;;;;;;0.20;0.10;;;;;;;14.44;73.11;100539.44;5064929;28;20085;-68
2023/04/26 07:46:38;;;;;;;0.45;0.10;;;;;;;14.75;72.61;100542.94;5045543;28;20560;-68
2023/04/26 07:49:04;;;;;;;1.25;0.20;;;;;;;14.89;72.42;100544.03;5062266;28;20074;-68
2023/04/26 07:51:29;;;;;;;2.50;0.10;;;;;;;15.14;72.46;100542.91;5067272;28;20033;-68
2023/04/26 07:53:54;;;;;;;0.35;0.15;;;;;;;15.42;72.50;100545.88;5065905;28;20119;-68
2023/04/26 07:56:20;;;;;;;0.98;0.10;;;;;;;15.49;72.01;100551.28;5065073;28;20083;-68
2023/04/26 07:58:46;;;;;;;0.52;0.10;;;;;;;15.53;71.63;100548.13;5060522;28;20029;-68
2023/04/26 08:01:11;;;;;;;0.40;0.10;;;;;;;15.84;70.66;100560.38;5061993;28;20107;-68
2023/04/26 08:03:37;;;;;;;0.50;0.10;;;;;;;16.20;68.75;100553.50;5064170;28;20037;-68
2023/04/26 08:06:02;;;;;;;0.57;0.10;;;;;;;16.08;66.86;100557.53;5058780;28;20041;-69
2023/04/26 08:08:28;;;;;;;0.10;0.03;;;;;;;16.06;66.20;100561.38;5064542;28;20133;-67
2023/04/26 08:10:57;;;;;;;0.20;0.00;;;;;;;16.14;65.54;100556.03;5064736;28;20415;-67
2023/04/26 08:13:22;;;;;;;1.10;0.00;;;;;;;16.35;64.77;100558.78;5063549;28;20441;-67
2023/04/26 08:15:48;;;;;;;0.38;0.10;;;;;;;16.71;63.81;100564.16;5065680;28;21484;-67
2023/04/26 08:18:13;;;;;;;0.40;0.10;;;;;;;16.68;63.50;100564.53;5056859;28;20035;-67
2023/04/26 08:20:39;;;;;;;0.55;0.03;;;;;;;16.42;60.06;100561.50;5063478;28;20039;-68
2023/04/26 08:23:04;;;;;;;0.85;0.20;;;;;;;16.19;60.46;100562.38;5055938;28;20132;-68
2023/04/26 08:25:30;;;;;;;0.20;0.10;;;;;;;16.23;60.04;100558.41;5056485;28;20123;-68
2023/04/26 08:27:55;;;;;;;0.63;0.10;;;;;;;16.40;61.10;100558.25;5058766;28;20116;-68
2023/04/26 08:30:21;;;;;;;0.17;0.00;;;;;;;16.85;60.77;100555.47;5057851;28;20041;-68
2023/04/26 08:32:47;;;;;;;0.10;0.00;;;;;;;17.06;59.97;100564.41;5054746;28;20500;-68
2023/04/26 08:35:12;;;;;;;1.75;0.05;;;;;;;17.36;58.96;100563.34;5063900;28;20033;-67
2023/04/26 08:37:38;;;;;;;0.20;0.00;;;;;;;17.55;58.35;100569.81;5071098;28;20043;-68
2023/04/26 08:40:08;;;;;;;0.10;0.00;;;;;;;17.30;58.78;100572.00;5072286;28;20056;-68
2023/04/26 08:42:39;;;;;;;1.10;0.00;;;;;;;17.64;57.38;100568.69;5065525;28;20028;-68
2023/04/26 08:45:08;;;;;;;0.10;0.00;;;;;;;17.18;56.32;100573.47;5070801;28;20044;-68
2023/04/26 08:47:38;;;;;;;1.58;0.08;;;;;;;17.18;57.71;100576.09;5069438;28;20029;-67
2023/04/26 08:50:05;;;;;;;1.65;0.05;;;;;;;17.23;58.23;100571.09;5071771;28;20020;-67
2023/04/26 08:52:31;;;;;;;0.47;0.00;;;;;;;17.40;57.76;100580.41;5067882;28;20020;-67
2023/04/26 08:54:59;;;;;;;1.67;0.05;;;;;;;17.50;57.36;100575.63;5065994;28;20050;-68
2023/04/26 08:57:25;;;;;;;0.10;0.00;;;;;;;17.54;57.84;100576.91;5065788;28;20447;-69
2023/04/26 08:59:52;;;;;;;0.63;0.08;;;;;;;17.40;57.56;100569.88;5067707;28;20043;-67
2023/04/26 09:02:19;;;;;;;0.10;0.00;;;;;;;17.18;58.90;100576.91;5072762;28;20372;-67
2023/04/26 09:04:46;;;;;;;1.30;0.08;;;;;;;16.77;58.36;100581.06;5071794;28;20128;-67
2023/04/26 09:07:18;;;;;;;0.03;0.00;;;;;;;16.73;57.51;100572.69;5073216;28;20068;-67
2023/04/26 09:09:47;;;;;;;0.50;0.00;;;;;;;16.51;56.15;100577.03;5069758;28;20033;-67
2023/04/26 09:12:16;;;;;;;0.82;0.00;;;;;;;16.38;57.29;100579.47;5070698;28;20028;-68
2023/04/26 09:14:42;;;;;;;0.70;0.08;;;;;;;16.35;59.02;100573.75;5067177;28;20036;-68
2023/04/26 09:17:26;;;;;;;0.10;0.00;;;;;;;16.35;58.22;100579.00;5070740;28;20173;-67
2023/04/26 09:19:52;;;;;;;0.43;0.00;;;;;;;16.63;60.74;100577.38;5070274;28;20070;-68
2023/04/26 09:22:37;;;;;;;3.05;0.10;;;;;;;16.49;58.27;100586.09;5070567;28;20078;-67
2023/04/26 09:25:04;;;;;;;0.15;0.00;;;;;;;16.65;62.98;100571.97;5070744;28;20036;-67
2023/04/26 09:27:38;;;;;;;1.20;0.00;;;;;;;16.70;61.22;100573.06;5049988;28;20071;-67
2023/04/26 09:30:06;;;;;;;0.30;0.10;;;;;;;16.39;60.61;100567.13;5070739;28;20154;-67
2023/04/26 09:32:50;;;;;;;1.55;0.10;;;;;;;16.03;56.47;100575.69;5069840;28;20483;-68
2023/04/26 09:35:21;;;;;;;0.17;0.05;;;;;;;16.07;59.46;100569.06;5067828;28;20048;-67
2023/04/26 09:38:13;;;;;;;0.20;0.10;;;;;;;16.48;59.54;100563.44;5070046;28;20404;-68
2023/04/26 09:40:46;;;;;;;0.50;0.10;;;;;;;16.79;61.42;100566.72;5068175;28;20093;-67
2023/04/26 09:43:15;;;;;;;0.13;0.10;;;;;;;17.01;60.73;100567.63;5068290;28;20080;-67
2023/04/26 09:45:49;;;;;;;0.20;0.03;;;;;;;17.05;59.99;100560.94;5070582;28;20038;-67
2023/04/26 09:48:24;;;;;;;0.40;0.10;;;;;;;17.13;61.36;100557.41;5067640;28;20037;-67
2023/04/26 09:50:53;;;;;;;0.50;0.10;;;;;;;17.26;62.32;100560.19;5070493;28;20033;-67
2023/04/26 09:53:36;;;;;;;0.73;0.30;;;;;;;17.29;59.77;100556.38;5066251;28;20049;-67
2023/04/26 09:56:09;;;;;;;4.10;0.10;;;;;;;17.20;61.65;100553.03;5066722;28;20058;-67
2023/04/26 09:58:39;;;;;;;0.50;0.10;;;;;;;17.23;62.04;100550.84;5075034;28;20024;-67
2023/04/26 10:01:06;;;;;;;0.32;0.10;;;;;;;17.31;62.69;100557.81;5069756;28;20035;-67
2023/04/26 10:03:35;;;;;;;0.17;0.03;;;;;;;17.18;61.58;100558.47;5063681;28;20037;-67
2023/04/26 10:06:01;;;;;;;0.20;0.10;;;;;;;17.16;62.80;100551.78;5069267;28;20052;-67
2023/04/26 10:08:27;;;;;;;0.38;0.10;;;;;;;17.20;62.83;100555.66;5069473;28;20070;-67
2023/04/26 10:10:54;;;;;;;0.20;0.03;;;;;;;17.18;61.64;100549.78;5069595;28;20539;-67
2023/04/26 10:13:20;;;;;;;0.25;0.10;;;;;;;16.88;61.47;100552.47;5071086;28;20037;-68
2023/04/26 10:15:46;;;;;;;0.52;0.10;;;;;;;16.96;60.43;100546.28;5069980;28;20392;-67
2023/04/26 10:18:12;;;;;;;0.15;0.00;;;;;;;16.84;60.57;100551.19;5068843;28;20036;-67
2023/04/26 10:20:41;;;;;;;2.50;0.00;;;;;;;16.68;59.55;100548.75;5070089;28;20032;-67
2023/04/26 10:23:15;;;;;;;0.77;0.10;;;;;;;16.69;57.94;100549.56;5051882;28;20025;-67
2023/04/26 10:25:41;;;;;;;1.42;0.00;;;;;;;16.78;58.30;100537.97;5065781;28;20028;-65
2023/04/26 10:28:07;;;;;;;0.40;0.10;;;;;;;16.94;57.91;100552.72;5069743;28;20032;-65
2023/04/26 10:30:52;;;;;;;0.52;0.00;;;;;;;16.95;56.83;100535.94;5067070;28;20132;-65
2023/04/26 10:33:18;;;;;;;0.20;0.08;;;;;;;16.97;57.84;100539.22;5059022;28;20044;-65
2023/04/26 10:36:02;;;;;;;0.20;0.08;;;;;;;17.02;54.78;100545.53;5069680;28;20032;-65
2023/04/26 10:38:28;;;;;;;0.20;0.05;;;;;;;17.02;57.89;100542.91;5068449;28;20025;-64
2023/04/26 10:40:54;;;;;;;1.13;0.10;;;;;;;16.99;57.14;100540.66;5050426;28;20028;-65
2023/04/26 10:43:26;;;;;;;0.10;0.00;;;;;;;16.81;56.33;100543.66;5065317;28;20036;-65
2023/04/26 10:45:53;;;;;;;0.20;0.00;;;;;;;16.85;57.51;100544.13;5069851;28;20025;-65
2023/04/26 10:48:29;;;;;;;0.52;0.00;;;;;;;16.82;56.98;100542.66;5068399;28;20044;-65
2023/04/26 10:51:00;;;;;;;0.40;0.20;;;;;;;16.83;56.33;100546.94;5064517;28;20126;-65
2023/04/26 10:53:27;;;;;;;0.30;0.00;;;;;;;16.82;56.44;100542.66;5069921;28;20040;-69
2023/04/26 10:55:53;;;;;;;0.35;0.08;;;;;;;16.87;56.58;100542.94;5064137;28;20025;-69
2023/04/26 10:58:32;;;;;;;0.30;0.10;;;;;;;16.93;55.43;100551.91;5068784;28;20507;-69
2023/04/26 11:01:05;;;;;;;0.65;0.10;;;;;;;16.89;53.35;100542.75;5065119;28;20059;-69
2023/04/26 11:03:30;;;;;;;3.03;0.10;;;;;;;16.88;56.73;100541.94;5068210;28;20035;-69
2023/04/26 11:05:56;;;;;;;0.52;0.00;;;;;;;17.04;56.34;100526.91;5063706;28;20068;-69
2023/04/26 11:08:31;;;;;;;1.15;0.00;;;;;;;17.09;55.33;100532.44;5068737;28;20035;-69
2023/04/26 11:11:08;;;;;;;0.30;0.10;;;;;;;17.03;54.90;100523.47;5066856;28;20417;-69
2023/04/26 11:13:41;;;;;;;1.02;0.00;;;;;;;16.84;55.60;100530.16;5064249;28;20399;-68
2023/04/26 11:16:09;;;;;;;1.35;0.10;;;;;;;16.74;55.52;100526.97;5069511;28;20043;-69
2023/04/26 11:18:37;;;;;;;0.50;0.00;;;;;;;16.74;56.72;100526.97;5065872;28;20029;-69
2023/04/26 11:21:04;;;;;;;0.30;0.10;;;;;;;16.78;56.80;100535.31;5068408;28;20032;-68
2023/04/26 11:23:30;;;;;;;0.90;0.10;;;;;;;16.80;56.42;100531.50;5068623;28;20119;-69
2023/04/26 11:26:03;;;;;;;0.38;0.00;;;;;;;16.83;56.53;100531.16;5068510;28;20083;-68